createdAt,value
2023-03-08T00:01:45.231Z,22.17
2023-03-08T00:04:13.101Z,21.15
2023-03-08T00:06:41.289Z,24.63
2023-03-08T00:09:11.560Z,23.38
2023-03-08T00:11:38.428Z,22.20
2023-03-08T00:14:05.302Z,19.35
2023-03-08T00:16:32.073Z,21.63
2023-03-08T00:19:01.816Z,20.42
2023-03-08T00:21:29.871Z,20.13
2023-03-08T00:23:57.735Z,23.63
2023-03-08T00:26:25.044Z,21.25
2023-03-08T00:28:54.895Z,21.13
2023-03-08T00:31:22.218Z,21.73
2023-03-08T00:33:53.619Z,23.13
2023-03-08T00:36:20.777Z,23.38
2023-03-08T00:38:48.270Z,20.27
2023-03-08T00:41:15.063Z,21.57
2023-03-08T00:43:42.451Z,22.40
2023-03-08T00:46:09.776Z,25.52
2023-03-08T00:48:36.538Z,21.13
2023-03-08T00:51:03.943Z,23.97
2023-03-08T00:53:30.958Z,24.27
2023-03-08T00:55:59.613Z,24.63
2023-03-08T00:58:30.217Z,24.07
2023-03-08T01:00:58.160Z,23.97
2023-03-08T01:03:25.169Z,20.50
2023-03-08T01:05:54.255Z,23.80
2023-03-08T01:08:23.033Z,20.53
2023-03-08T01:10:57.708Z,20.90
2023-03-08T01:13:26.297Z,17.77
2023-03-08T01:15:53.146Z,20.57
2023-03-08T01:18:19.993Z,19.67
2023-03-08T01:20:57.758Z,20.20
2023-03-08T01:23:25.449Z,19.13
2023-03-08T01:25:59.994Z,16.77
2023-03-08T01:28:26.788Z,20.07
2023-03-08T01:30:53.505Z,22.53
2023-03-08T01:33:21.032Z,17.08
2023-03-08T01:35:49.939Z,19.17
2023-03-08T01:38:16.683Z,19.23
2023-03-08T01:40:43.411Z,18.50
2023-03-08T01:43:29.649Z,18.37
2023-03-08T01:46:30.938Z,17.80
2023-03-08T01:49:24.849Z,17.30
2023-03-08T01:52:07.271Z,19.07
2023-03-08T01:54:41.670Z,20.08
2023-03-08T01:57:16.265Z,23.40
2023-03-08T01:59:44.132Z,20.10
2023-03-08T02:02:10.911Z,22.20
2023-03-08T02:04:38.675Z,26.03
2023-03-08T02:07:08.726Z,26.45
2023-03-08T02:09:35.942Z,29.55
2023-03-08T02:12:04.949Z,26.30
2023-03-08T02:14:32.898Z,19.33
2023-03-08T02:16:59.661Z,19.03
2023-03-08T02:20:12.664Z,19.67
2023-03-08T02:22:41.160Z,18.60
2023-03-08T02:25:19.571Z,20.23
2023-03-08T02:27:46.565Z,20.50
2023-03-08T02:30:15.635Z,17.70
2023-03-08T02:32:42.504Z,16.23
2023-03-08T02:35:09.890Z,16.70
2023-03-08T02:37:36.562Z,16.33
2023-03-08T02:40:03.922Z,15.23
2023-03-08T02:42:30.592Z,14.40
2023-03-08T02:44:57.366Z,17.00
2023-03-08T02:47:24.189Z,12.87
2023-03-08T02:49:51.141Z,14.50
2023-03-08T02:52:18.657Z,13.57
2023-03-08T02:54:45.541Z,12.07
2023-03-08T02:57:12.218Z,11.50
2023-03-08T02:59:39.160Z,11.68
2023-03-08T03:02:06.126Z,12.93
2023-03-08T03:04:34.204Z,11.63
2023-03-08T03:07:01.344Z,13.55
2023-03-08T03:09:29.702Z,13.55
2023-03-08T03:11:56.887Z,12.75
2023-03-08T03:14:23.902Z,12.18
2023-03-08T03:16:50.661Z,11.65
2023-03-08T03:19:17.465Z,11.10
2023-03-08T03:21:44.236Z,11.35
2023-03-08T03:24:11.027Z,11.35
2023-03-08T03:26:46.041Z,11.90
2023-03-08T03:29:12.946Z,8.50
2023-03-08T03:31:41.980Z,13.07
2023-03-08T03:34:09.465Z,13.10
2023-03-08T03:36:37.165Z,10.05
2023-03-08T03:39:04.464Z,10.30
2023-03-08T03:41:33.925Z,13.98
2023-03-08T03:44:05.601Z,9.43
2023-03-08T03:46:33.461Z,12.30
2023-03-08T03:49:00.231Z,10.73
2023-03-08T03:51:32.999Z,12.57
2023-03-08T03:54:12.796Z,11.77
2023-03-08T03:56:41.041Z,10.10
2023-03-08T03:59:07.815Z,9.77
2023-03-08T04:01:34.957Z,13.05
2023-03-08T04:04:10.972Z,8.85
2023-03-08T04:06:41.270Z,9.95
2023-03-08T04:09:13.819Z,9.98
2023-03-08T04:11:41.618Z,7.07
2023-03-08T04:14:15.168Z,5.80
2023-03-08T04:16:42.859Z,8.07
2023-03-08T04:19:16.997Z,7.78
2023-03-08T04:21:50.169Z,5.50
2023-03-08T04:24:18.470Z,5.80
2023-03-08T04:26:48.633Z,4.90
2023-03-08T04:29:18.361Z,4.63
2023-03-08T04:31:45.643Z,4.70
2023-03-08T04:34:16.240Z,3.60
2023-03-08T04:36:46.575Z,4.80
2023-03-08T04:39:14.029Z,3.55
2023-03-08T04:41:41.028Z,4.65
2023-03-08T04:44:18.688Z,3.65
2023-03-08T04:46:49.221Z,3.78
2023-03-08T04:49:24.141Z,5.05
2023-03-08T04:51:55.363Z,4.85
2023-03-08T04:54:23.941Z,4.32
2023-03-08T04:56:57.042Z,9.70
2023-03-08T04:59:25.342Z,3.88
2023-03-08T05:01:54.881Z,4.75
2023-03-08T05:04:22.674Z,3.03
2023-03-08T05:06:49.427Z,3.40
2023-03-08T05:09:21.917Z,3.45
2023-03-08T05:11:51.135Z,3.63
2023-03-08T05:14:18.041Z,2.80
2023-03-08T05:16:44.859Z,2.88
2023-03-08T05:19:12.348Z,6.43
2023-03-08T05:21:46.387Z,4.10
2023-03-08T05:24:14.450Z,4.10
2023-03-08T05:26:41.139Z,3.70
2023-03-08T05:29:10.006Z,5.00
2023-03-08T05:31:40.163Z,3.97
2023-03-08T05:34:10.916Z,3.20
2023-03-08T05:36:42.206Z,5.45
2023-03-08T05:39:09.163Z,3.70
2023-03-08T05:41:42.040Z,3.70
2023-03-08T05:44:09.652Z,3.92
2023-03-08T05:46:40.723Z,5.13
2023-03-08T05:49:08.773Z,4.30
2023-03-08T05:51:36.394Z,4.47
2023-03-08T05:54:03.606Z,4.28
2023-03-08T05:56:33.241Z,3.58
2023-03-08T05:59:08.211Z,4.85
2023-03-08T06:01:34.879Z,5.10
2023-03-08T06:04:14.810Z,3.35
2023-03-08T06:06:43.359Z,3.95
2023-03-08T06:09:10.238Z,3.55
2023-03-08T06:11:39.889Z,3.67
2023-03-08T06:14:07.358Z,3.97
2023-03-08T06:16:35.236Z,4.45
2023-03-08T06:19:02.679Z,4.20
2023-03-08T06:21:30.667Z,4.72
2023-03-08T06:24:03.446Z,5.38
2023-03-08T06:26:30.938Z,4.43
2023-03-08T06:28:57.876Z,4.95
2023-03-08T06:31:28.533Z,3.05
2023-03-08T06:33:55.732Z,3.17
2023-03-08T06:36:25.783Z,3.67
2023-03-08T06:38:52.852Z,3.22
2023-03-08T06:41:20.724Z,3.97
2023-03-08T06:43:51.601Z,4.35
2023-03-08T06:46:19.366Z,4.55
2023-03-08T06:48:47.202Z,3.58
2023-03-08T06:51:15.275Z,3.00
2023-03-08T06:53:44.494Z,3.65
2023-03-08T06:56:15.029Z,7.82
2023-03-08T06:58:41.954Z,3.33
2023-03-08T07:01:12.636Z,3.63
2023-03-08T07:03:39.537Z,3.67
2023-03-08T07:06:10.032Z,3.50
2023-03-08T07:08:38.135Z,4.40
2023-03-08T07:11:06.693Z,3.67
2023-03-08T07:13:33.555Z,3.22
2023-03-08T07:16:05.078Z,3.15
2023-03-08T07:18:31.862Z,3.33
2023-03-08T07:20:58.830Z,3.22
2023-03-08T07:23:25.822Z,3.40
2023-03-08T07:25:52.944Z,2.92
2023-03-08T07:28:21.079Z,3.00
2023-03-08T07:30:49.024Z,3.72
2023-03-08T07:33:16.995Z,5.07
2023-03-08T07:35:43.953Z,2.80
2023-03-08T07:38:14.909Z,3.15
2023-03-08T07:40:41.879Z,3.08
2023-03-08T07:43:08.707Z,3.28
2023-03-08T07:46:00.415Z,3.45
2023-03-08T07:48:27.420Z,4.35
2023-03-08T07:50:54.147Z,3.70
2023-03-08T07:53:21.125Z,4.47
2023-03-08T07:55:47.874Z,4.30
2023-03-08T07:58:14.656Z,4.10
2023-03-08T08:00:41.400Z,6.00
2023-03-08T08:03:08.165Z,3.75
2023-03-08T08:05:36.757Z,4.53
2023-03-08T08:08:05.330Z,4.78
2023-03-08T08:10:32.024Z,4.20
2023-03-08T08:12:58.793Z,6.55
2023-03-08T08:15:25.893Z,4.45
2023-03-08T08:17:52.968Z,4.45
2023-03-08T08:20:19.655Z,4.07
2023-03-08T08:22:46.376Z,4.60
2023-03-08T08:25:13.169Z,4.22
2023-03-08T08:27:40.022Z,4.85
2023-03-08T08:30:07.631Z,5.22
2023-03-08T08:32:35.327Z,5.03
2023-03-08T08:35:02.171Z,4.57
2023-03-08T08:37:30.433Z,4.43
2023-03-08T08:39:58.605Z,4.22
2023-03-08T08:42:25.799Z,4.68
2023-03-08T08:44:53.546Z,4.80
2023-03-08T08:47:20.299Z,3.70
2023-03-08T08:49:47.084Z,4.10
2023-03-08T08:52:13.776Z,4.65
2023-03-08T08:54:41.567Z,4.45
2023-03-08T08:57:08.384Z,4.00
2023-03-08T08:59:35.187Z,3.17
2023-03-08T09:02:02.402Z,3.17
2023-03-08T09:04:29.222Z,3.42
2023-03-08T09:06:56.258Z,3.55
2023-03-08T09:09:23.074Z,3.90
2023-03-08T09:11:55.270Z,3.63
2023-03-08T09:14:22.956Z,4.32
2023-03-08T09:16:50.777Z,4.10
2023-03-08T09:19:17.545Z,4.07
2023-03-08T09:21:44.257Z,3.83
2023-03-08T09:24:11.448Z,3.10
2023-03-08T09:26:38.243Z,3.70
2023-03-08T09:29:05.587Z,4.00
2023-03-08T09:31:34.304Z,4.50
2023-03-08T09:34:04.656Z,4.25
2023-03-08T09:36:31.697Z,3.72
2023-03-08T09:38:58.598Z,5.30
2023-03-08T09:41:35.355Z,4.18
2023-03-08T09:44:26.959Z,4.63
2023-03-08T09:46:57.587Z,5.07
2023-03-08T09:49:29.738Z,4.63
2023-03-08T09:52:02.244Z,4.40
2023-03-08T09:54:29.423Z,4.82
2023-03-08T09:56:57.019Z,5.00
2023-03-08T09:59:41.092Z,4.80
2023-03-08T10:02:31.539Z,6.05
2023-03-08T10:05:35.709Z,5.07
2023-03-08T10:08:17.574Z,6.72
2023-03-08T10:10:56.550Z,5.20
2023-03-08T10:13:36.908Z,4.65
2023-03-08T10:16:10.416Z,5.80
2023-03-08T10:18:45.670Z,6.18
2023-03-08T10:21:17.207Z,6.90
2023-03-08T10:23:47.292Z,5.40
2023-03-08T10:26:15.635Z,6.68
2023-03-08T10:28:42.379Z,6.47
2023-03-08T10:31:29.398Z,5.90
2023-03-08T10:34:16.738Z,7.40
2023-03-08T10:37:01.806Z,7.18
2023-03-08T10:39:28.732Z,6.40
2023-03-08T10:42:07.238Z,6.78
2023-03-08T10:44:57.737Z,6.43
2023-03-08T10:47:35.389Z,6.78
2023-03-08T10:50:23.393Z,6.25
2023-03-08T10:52:51.130Z,7.07
2023-03-08T10:55:20.115Z,6.88
2023-03-08T10:57:55.722Z,8.23
2023-03-08T11:00:29.467Z,8.13
2023-03-08T11:03:12.914Z,8.25
2023-03-08T11:05:40.084Z,10.20
2023-03-08T11:08:18.956Z,8.57
2023-03-08T11:10:45.956Z,9.55
2023-03-08T11:13:20.564Z,8.70
2023-03-08T11:15:55.983Z,9.52
2023-03-08T11:18:42.272Z,9.60
2023-03-08T11:21:32.151Z,13.15
2023-03-08T11:24:29.979Z,9.88
2023-03-08T11:27:18.546Z,10.35
2023-03-08T11:29:57.612Z,11.23
2023-03-08T11:32:53.149Z,13.15
2023-03-08T11:39:24.719Z,11.98
2023-03-08T11:42:04.467Z,10.02
2023-03-08T11:44:53.143Z,11.30
2023-03-08T11:48:19.505Z,11.27
2023-03-08T11:50:56.547Z,10.15
2023-03-08T11:53:32.366Z,10.63
2023-03-08T11:56:11.244Z,9.38
2023-03-08T11:58:56.509Z,10.48
2023-03-08T12:01:30.968Z,10.27
2023-03-08T12:04:04.178Z,9.73
2023-03-08T12:06:35.802Z,10.00
2023-03-08T12:09:10.222Z,9.52
2023-03-08T12:11:55.274Z,9.95
2023-03-08T12:14:26.591Z,10.25
2023-03-08T12:17:07.871Z,8.48
2023-03-08T12:19:43.586Z,11.45
2023-03-08T12:22:48.457Z,11.38
2023-03-08T12:25:38.073Z,10.50
2023-03-08T12:28:07.279Z,10.57
2023-03-08T12:30:49.015Z,11.57
2023-03-08T12:33:16.773Z,9.43
2023-03-08T12:35:51.613Z,10.60
2023-03-08T12:38:18.452Z,10.80
2023-03-08T12:40:53.555Z,10.60
2023-03-08T12:43:22.412Z,10.68
2023-03-08T12:46:13.282Z,10.52
2023-03-08T12:48:51.879Z,11.50
2023-03-08T12:51:32.273Z,11.65
2023-03-08T12:54:04.511Z,11.23
2023-03-08T12:56:51.467Z,10.63
2023-03-08T12:59:18.944Z,11.02
2023-03-08T13:02:07.414Z,12.43
2023-03-08T13:04:41.306Z,13.13
2023-03-08T13:07:17.604Z,11.73
2023-03-08T13:09:54.079Z,11.30
2023-03-08T13:12:38.257Z,12.48
2023-03-08T13:15:40.518Z,10.95
2023-03-08T13:18:30.437Z,11.43
2023-03-08T13:21:19.478Z,11.33
2023-03-08T13:23:54.256Z,11.85
2023-03-08T13:26:58.653Z,10.73
2023-03-08T13:29:31.276Z,11.70
2023-03-08T13:31:58.333Z,12.03
2023-03-08T13:34:33.281Z,9.90
2023-03-08T13:37:00.318Z,12.73
2023-03-08T13:39:31.592Z,12.05
2023-03-08T13:42:11.461Z,12.80
2023-03-08T13:44:40.960Z,12.93
2023-03-08T13:47:28.216Z,14.70
2023-03-08T13:50:21.434Z,13.07
2023-03-08T13:52:49.897Z,13.00
2023-03-08T13:55:20.770Z,16.75
2023-03-08T13:57:52.553Z,13.63
2023-03-08T14:00:27.685Z,15.75
2023-03-08T14:02:55.510Z,11.13
2023-03-08T14:05:40.156Z,13.37
2023-03-08T14:08:18.338Z,12.57
2023-03-08T14:10:52.015Z,11.67
2023-03-08T14:13:30.107Z,12.47
2023-03-08T14:16:13.672Z,13.97
2023-03-08T14:18:47.101Z,14.10
2023-03-08T14:21:17.061Z,13.03
2023-03-08T14:23:51.228Z,12.80
2023-03-08T14:26:27.149Z,13.47
2023-03-08T14:29:22.157Z,12.47
2023-03-08T14:31:57.678Z,14.30
2023-03-08T14:34:34.033Z,13.50
2023-03-08T14:37:05.035Z,15.05
2023-03-08T14:39:34.019Z,16.02
2023-03-08T14:42:21.481Z,16.73
2023-03-08T14:45:10.016Z,16.45
2023-03-08T14:47:54.531Z,16.90
2023-03-08T14:50:33.800Z,16.27
2023-03-08T14:53:02.628Z,17.80
2023-03-08T14:55:35.082Z,17.27
2023-03-08T14:58:11.631Z,18.45
2023-03-08T15:00:54.126Z,16.38
2023-03-08T15:03:21.776Z,16.73
2023-03-08T15:05:48.691Z,16.90
2023-03-08T15:08:17.697Z,17.05
2023-03-08T15:10:45.029Z,19.50
2023-03-08T15:13:20.809Z,19.52
2023-03-08T15:15:51.134Z,22.10
2023-03-08T15:18:19.235Z,17.53
2023-03-08T15:20:50.290Z,17.92
2023-03-08T15:23:46.743Z,15.67
2023-03-08T15:26:21.086Z,16.30
2023-03-08T15:28:48.120Z,17.73
2023-03-08T15:31:15.149Z,17.98
2023-03-08T15:33:42.682Z,18.07
2023-03-08T15:36:13.508Z,19.52
2023-03-08T15:38:43.601Z,18.35
2023-03-08T15:41:18.547Z,16.70
2023-03-08T15:43:46.445Z,17.35
2023-03-08T15:46:14.238Z,19.60
2023-03-08T15:48:41.535Z,15.80
2023-03-08T15:51:17.291Z,18.67
2023-03-08T15:53:44.427Z,15.55
2023-03-08T15:56:11.214Z,16.27
2023-03-08T15:58:38.141Z,17.98
2023-03-08T16:01:06.217Z,18.25
2023-03-08T16:03:35.206Z,15.82
2023-03-08T16:06:02.674Z,18.60
2023-03-08T16:08:29.765Z,16.05
2023-03-08T16:10:56.896Z,18.10
2023-03-08T16:13:23.721Z,16.85
2023-03-08T16:15:50.798Z,16.60
2023-03-08T16:18:17.648Z,19.13
2023-03-08T16:20:46.232Z,16.00
2023-03-08T16:23:14.131Z,18.57
2023-03-08T16:25:43.242Z,16.30
2023-03-08T16:28:10.730Z,16.77
2023-03-08T16:30:39.393Z,15.33
2023-03-08T16:33:06.272Z,16.33
2023-03-08T16:35:33.011Z,16.37
2023-03-08T16:38:00.046Z,16.45
2023-03-08T16:40:31.206Z,16.67
2023-03-08T16:42:58.266Z,16.27
2023-03-08T16:45:25.320Z,16.83
2023-03-08T16:47:52.344Z,17.17
2023-03-08T16:50:19.216Z,16.20
2023-03-08T16:52:46.126Z,17.93
2023-03-08T16:55:37.171Z,19.43
2023-03-08T16:58:04.141Z,19.47
2023-03-08T17:00:30.814Z,14.40
2023-03-08T17:02:57.775Z,16.77
2023-03-08T17:05:24.551Z,20.88
2023-03-08T17:07:51.799Z,19.20
2023-03-08T17:10:19.025Z,19.75
2023-03-08T17:12:45.705Z,17.63
2023-03-08T17:15:12.654Z,20.08
2023-03-08T17:17:40.161Z,21.17
2023-03-08T17:20:08.385Z,18.23
2023-03-08T17:22:35.455Z,22.88
2023-03-08T17:25:02.640Z,20.23
2023-03-08T17:27:33.490Z,19.23
2023-03-08T17:30:00.908Z,18.37
2023-03-08T17:32:27.893Z,22.47
2023-03-08T17:34:54.680Z,20.00
2023-03-08T17:37:23.131Z,21.97
2023-03-08T17:39:49.848Z,21.77
2023-03-08T17:42:16.528Z,19.90
2023-03-08T17:44:43.283Z,21.20
2023-03-08T17:47:11.365Z,22.07
2023-03-08T17:49:39.896Z,23.23
2023-03-08T17:52:07.534Z,23.40
2023-03-08T17:54:34.279Z,23.60
2023-03-08T17:57:01.257Z,21.70
2023-03-08T17:59:30.681Z,24.97
2023-03-08T18:01:57.467Z,24.13
2023-03-08T18:04:24.271Z,23.30
2023-03-08T18:06:51.460Z,24.85
2023-03-08T18:09:18.397Z,22.67
2023-03-08T18:11:45.167Z,21.90
2023-03-08T18:14:13.365Z,25.35
2023-03-08T18:16:40.553Z,23.05
2023-03-08T18:19:07.403Z,25.97
2023-03-08T18:21:35.907Z,25.48
2023-03-08T18:24:02.985Z,26.73
2023-03-08T18:26:29.701Z,24.88
2023-03-08T18:28:56.410Z,25.47
2023-03-08T18:31:26.145Z,23.37
2023-03-08T18:33:55.004Z,24.33
2023-03-08T18:36:22.221Z,25.80
2023-03-08T18:38:49.523Z,25.80
2023-03-08T18:41:28.288Z,25.25
2023-03-08T18:43:57.244Z,24.40
2023-03-08T18:46:29.141Z,25.60
2023-03-08T18:49:03.583Z,23.43
2023-03-08T18:51:31.831Z,24.90
2023-03-08T18:53:59.224Z,24.93
2023-03-08T18:56:26.942Z,26.87
2023-03-08T18:58:58.537Z,27.70
2023-03-08T19:01:26.362Z,26.73
2023-03-08T19:03:53.068Z,26.27
2023-03-08T19:06:20.102Z,28.63
2023-03-08T19:08:46.827Z,27.77
2023-03-08T19:11:19.449Z,26.90
2023-03-08T19:13:47.271Z,27.67
2023-03-08T19:16:19.278Z,28.17
2023-03-08T19:18:47.308Z,28.43
2023-03-08T19:21:20.568Z,26.80
2023-03-08T19:23:47.844Z,27.90
2023-03-08T19:26:37.074Z,28.40
2023-03-08T19:29:12.585Z,26.90
2023-03-08T19:31:41.787Z,25.97
2023-03-08T19:34:10.460Z,29.08
2023-03-08T19:36:37.571Z,28.83
2023-03-08T19:39:06.104Z,28.03
2023-03-08T19:41:33.858Z,27.47
2023-03-08T19:44:01.346Z,29.93
2023-03-08T19:46:28.178Z,27.67
2023-03-08T19:48:55.764Z,29.50
2023-03-08T19:51:22.683Z,30.27
2023-03-08T19:53:49.567Z,28.10
2023-03-08T19:56:18.479Z,27.03
2023-03-08T19:58:46.868Z,26.43
2023-03-08T20:01:16.722Z,29.85
2023-03-08T20:03:44.283Z,28.73
2023-03-08T20:06:13.648Z,29.57
2023-03-08T20:08:40.528Z,26.57
2023-03-08T20:11:07.398Z,26.77
2023-03-08T20:13:34.207Z,27.37
2023-03-08T20:16:01.297Z,28.63
2023-03-08T20:18:29.416Z,29.20
2023-03-08T20:20:58.474Z,27.90
2023-03-08T20:23:25.813Z,27.67
2023-03-08T20:25:52.539Z,26.70
2023-03-08T20:28:19.546Z,26.53
2023-03-08T20:30:47.820Z,28.80
2023-03-08T20:33:15.267Z,26.13
2023-03-08T20:35:42.461Z,24.97
2023-03-08T20:38:09.626Z,24.70
2023-03-08T20:40:38.665Z,25.60
2023-03-08T20:43:07.396Z,27.97
2023-03-08T20:45:34.214Z,27.83
2023-03-08T20:48:01.129Z,24.70
2023-03-08T20:50:28.003Z,23.50
2023-03-08T20:52:54.892Z,26.07
2023-03-08T20:55:21.748Z,26.63
2023-03-08T20:57:48.427Z,24.63
2023-03-08T21:00:15.489Z,26.97
2023-03-08T21:02:42.884Z,25.17
2023-03-08T21:05:10.083Z,27.53
2023-03-08T21:07:36.921Z,26.13
2023-03-08T21:10:03.819Z,27.97
2023-03-08T21:12:30.615Z,22.93
2023-03-08T21:14:58.678Z,22.23
2023-03-08T21:17:26.067Z,24.50
2023-03-08T21:19:53.976Z,24.47
2023-03-08T21:22:21.200Z,22.13
2023-03-08T21:24:47.949Z,24.47
2023-03-08T21:27:15.037Z,26.08
2023-03-08T21:29:42.050Z,23.97
2023-03-08T21:32:09.252Z,22.83
2023-03-08T21:34:37.823Z,22.73
2023-03-08T21:37:04.963Z,20.97
2023-03-08T21:39:32.931Z,21.83
2023-03-08T21:42:02.802Z,24.73
2023-03-08T21:44:31.927Z,22.93
2023-03-08T21:46:59.392Z,21.83
2023-03-08T21:49:28.555Z,22.93
2023-03-08T21:51:56.615Z,21.00
2023-03-08T21:54:26.893Z,21.73
2023-03-08T21:56:54.460Z,21.33
2023-03-08T21:59:27.045Z,23.10
2023-03-08T22:01:59.778Z,22.57
2023-03-08T22:04:27.733Z,23.20
2023-03-08T22:06:55.741Z,20.50
2023-03-08T22:09:26.805Z,19.17
2023-03-08T22:11:54.208Z,21.00
2023-03-08T22:14:21.259Z,23.33
2023-03-08T22:16:59.641Z,20.57
2023-03-08T22:19:26.673Z,19.23
2023-03-08T22:21:53.772Z,20.87
2023-03-08T22:24:20.855Z,20.10
2023-03-08T22:26:48.043Z,19.67
2023-03-08T22:29:14.904Z,18.80
2023-03-08T22:31:41.989Z,17.73
2023-03-08T22:34:09.350Z,17.10
2023-03-08T22:36:36.371Z,18.17
2023-03-08T22:39:06.054Z,16.27
2023-03-08T22:41:32.820Z,17.53
2023-03-08T22:43:59.721Z,17.27
2023-03-08T22:46:36.906Z,18.53
2023-03-08T22:49:10.961Z,17.17
2023-03-08T22:51:42.849Z,19.67
2023-03-08T22:54:19.473Z,22.70
2023-03-08T22:56:47.716Z,18.30
2023-03-08T22:59:16.189Z,17.90
2023-03-08T23:01:43.131Z,20.27
2023-03-08T23:04:11.093Z,17.07
2023-03-08T23:06:41.906Z,18.53
2023-03-08T23:09:11.427Z,15.53
2023-03-08T23:11:42.522Z,17.13
2023-03-08T23:14:09.574Z,17.07
2023-03-08T23:16:36.794Z,14.90
2023-03-08T23:19:04.058Z,15.57
2023-03-08T23:21:31.863Z,18.10
2023-03-08T23:23:58.752Z,17.03
2023-03-08T23:26:27.475Z,17.27
2023-03-08T23:28:55.895Z,18.10
2023-03-08T23:31:28.155Z,18.63
2023-03-08T23:33:57.556Z,18.20
2023-03-08T23:36:29.929Z,17.33
2023-03-08T23:39:00.909Z,17.23
2023-03-08T23:41:36.189Z,17.87
2023-03-08T23:44:04.812Z,18.67
2023-03-08T23:46:31.706Z,18.43
2023-03-08T23:48:59.895Z,18.90
2023-03-08T23:51:37.613Z,18.57
2023-03-08T23:54:04.391Z,18.23
2023-03-08T23:56:38.170Z,18.80
2023-03-08T23:59:19.060Z,20.53
